Flight Track Log - Related Links

Times and Time Zones

All times are in EST time to prevent confusion due to time zone crossing. See the AAY956 flight status page for this flight to view local times or setup timezone preferences in your user account.

Time Position Orientation Groundspeed Altitude Reporting Facility
EST Latitude Longitude Course Direction KTS MPH feet Rate Location/Type
Wed 08:34:00 AM 27.1394 -81.9656 19° North 325 374 4,800  Level Miami Center
Wed 08:35:00 AM 27.2164 -81.9711 356° North 295 339 7,800 2,800 Climbing Miami Center
Wed 08:36:00 AM 27.2956 -81.9747 358° North 287 330 10,400 1,900 Climbing Miami Center
Wed 08:37:00 AM 27.3894 -81.9789 358° North 301 346 11,600 1,600 Climbing Miami Center
Wed 08:38:00 AM 26.9664 -81.9730 19° North  Level FlightAware Approximate
Wed 08:38:00 AM 27.4933 -81.9858 357° North 340 391 13,600  Level Miami Center
Wed 08:39:00 AM 27.6061 -81.9886 359° North 389 448 15,900 2,050 Climbing Miami Center
Wed 08:40:00 AM 27.7225 -82.0008 355° North 414 476 17,700 1,700 Climbing Miami Center
Wed 08:41:00 AM 27.8308 -82.0056 358° North 422 486 19,300 1,576 Climbing Miami Center
Wed 08:43:18 AM 28.0933 -82.1186 339° North 422 486 22,900 1,515 Climbing Jacksonville Center
Wed 08:44:18 AM 28.1981 -82.1978 326° Northwest 431 496 24,300 1,450 Climbing Jacksonville Center
Wed 08:45:18 AM 28.2925 -82.2892 320° Northwest 442 509 25,800 1,550 Climbing Jacksonville Center
Wed 08:46:18 AM 28.3908 -82.3733 323° Northwest 442 509 27,400 1,400 Climbing Jacksonville Center
Wed 08:47:18 AM 28.4872 -82.4650 320° Northwest 447 514 28,600 1,250 Climbing Jacksonville Center
Wed 08:48:18 AM 28.5836 -82.5497 322° Northwest 447 514 29,900 700 Climbing Jacksonville Center
Wed 08:49:18 AM 28.6797 -82.6369 321° Northwest 447 514 30,000  Climbing Jacksonville Center
Wed 08:50:18 AM 28.8069 -82.6392 359° North 427 491 29,900  Descending Jacksonville Center
Wed 08:51:18 AM 28.9428 -82.6339 North 451 519 30,000 50 Climbing Jacksonville Center
Wed 08:52:18 AM 29.0764 -82.6264 North 465 535 30,000  Level Jacksonville Center
Wed 08:53:18 AM 29.2119 -82.6189 North 479 551 30,000  Level Jacksonville Center
Wed 08:54:18 AM 29.3475 -82.6114 North 479 551 30,000  Level Jacksonville Center
Wed 08:55:18 AM 29.4811 -82.6014 North 479 551 30,000 347 Level Jacksonville Center
Wed 08:56:19 AM 29.6189 -82.5986 North 479 551 30,700 750 Climbing Jacksonville Center
Wed 08:57:18 AM 29.7589 -82.5886 North 479 551 31,500 857 Climbing Jacksonville Center
Wed 08:58:18 AM 29.8944 -82.5836 North 479 551 32,400 750 Climbing Jacksonville Center
Wed 08:59:18 AM 30.0303 -82.5758 North 484 557 33,000 300 Climbing Jacksonville Center
Wed 09:00:18 AM 30.1700 -82.5753 360° North 484 557 33,000  Level Jacksonville Center
Wed 09:01:18 AM 30.3058 -82.5631 North 484 557 33,000  Level Jacksonville Center
Wed 09:02:18 AM 30.4436 -82.5600 North 484 557 33,000  Level Jacksonville Center
Wed 09:03:18 AM 30.5792 -82.5500 North 484 557 33,000  Level Jacksonville Center
Wed 09:04:18 AM 30.7169 -82.5494 360° North 484 557 33,000  Level Jacksonville Center
Wed 09:05:18 AM 30.8547 -82.5392 North 484 557 33,000  Level Jacksonville Center
Wed 09:06:18 AM 30.9864 -82.5339 North 484 557 33,000  Level Jacksonville Center
Wed 09:07:18 AM 31.1219 -82.5286 North 479 551 33,000  Level Jacksonville Center
Wed 09:08:18 AM 31.2597 -82.5231 North 479 551 33,000  Level Jacksonville Center
Wed 09:09:19 AM 31.3933 -82.5178 North 479 551 33,000  Level Jacksonville Center
Wed 09:11:46 AM 31.7181 -82.4789 North 497 572 33,000  Level Atlanta Center
Wed 09:12:46 AM 31.8556 -82.4617 North 497 572 33,000  Level Atlanta Center
Wed 09:13:46 AM 31.9928 -82.4350 North 497 572 33,000  Level Atlanta Center
Wed 09:14:46 AM 32.1325 -82.4200 North 502 578 33,000  Level Atlanta Center
Wed 09:15:46 AM 32.2844 -82.3853 11° North 502 578 33,000  Level Atlanta Center
Wed 09:16:46 AM 32.4200 -82.3681 North 502 578 33,000  Level Atlanta Center
Wed 09:17:46 AM 32.5594 -82.3458 North 502 578 33,000  Level Atlanta Center
Wed 09:18:46 AM 32.7008 -82.3133 11° North 502 578 33,000  Level Atlanta Center
Wed 09:19:46 AM 32.8383 -82.2883 North 502 578 33,000  Level Atlanta Center
Wed 09:20:46 AM 32.9775 -82.2511 13° North 502 578 33,000  Level Atlanta Center
Wed 09:21:46 AM 33.1192 -82.2183 11° North 508 585 33,000  Level Atlanta Center
Wed 09:22:46 AM 33.2564 -82.1831 12° North 508 585 33,000  Level Atlanta Center
Wed 09:23:46 AM 33.3997 -82.1503 11° North 508 585 33,000  Level Atlanta Center
Wed 09:24:46 AM 33.5414 -82.1172 11° North 508 585 33,000  Level Atlanta Center
Wed 09:25:46 AM 33.6681 -82.0869 11° North 508 585 33,000  Level Atlanta Center
Wed 09:26:46 AM 33.8117 -82.0536 11° North 508 585 33,000  Level Atlanta Center
Wed 09:27:46 AM 33.9489 -82.0178 12° North 508 585 33,000  Level Atlanta Center
Wed 09:28:46 AM 34.0922 -81.9894 North 508 585 33,000  Level Atlanta Center
Wed 09:29:46 AM 34.2336 -81.9508 13° North 513 590 33,000  Level Atlanta Center
Wed 09:30:46 AM 34.3750 -81.9222 North 518 596 33,000  Level Atlanta Center
Wed 09:31:46 AM 34.5161 -81.8833 13° North 518 596 33,000  Level Atlanta Center
Wed 09:32:46 AM 34.6700 -81.8517 10° North 518 596 33,000  Level Atlanta Center
Wed 09:33:46 AM 34.8072 -81.8150 12° North 513 590 33,000  Level Atlanta Center
Wed 09:34:46 AM 34.9464 -81.7861 10° North 506 582 33,000  Level Atlanta Center
Wed 09:35:46 AM 35.0856 -81.7442 14° North 506 582 33,000  Level Atlanta Center
Wed 09:36:46 AM 35.2247 -81.7175 North 506 582 33,000  Level Atlanta Center
Wed 09:37:46 AM 35.3658 -81.6778 13° North 506 582 33,000  Level Atlanta Center
Wed 09:38:46 AM 35.5072 -81.6483 10° North 506 582 33,000  Level Atlanta Center
Wed 09:39:46 AM 35.6339 -81.6139 12° North 506 582 33,000  Level Atlanta Center
Wed 09:40:46 AM 35.7769 -81.5764 12° North 506 582 33,000  Level Atlanta Center
Wed 09:41:46 AM 35.9181 -81.5414 11° North 511 588 33,000  Level Atlanta Center
Wed 09:42:46 AM 36.0572 -81.5036 12° North 511 588 33,000  Level Atlanta Center
Wed 09:43:46 AM 36.2003 -81.4708 10° North 511 588 33,000  Level Atlanta Center
Wed 09:44:46 AM 36.3392 -81.4303 13° North 511 588 33,000  Level Atlanta Center
Wed 09:45:46 AM 36.4803 -81.4000 10° North 511 588 33,000  Level Atlanta Center
Wed 09:46:46 AM 36.6214 -81.3592 13° North 511 588 33,000  Level Atlanta Center
Wed 09:48:40 AM 36.8986 -81.2844 12° North 518 596 33,000  Level Indianapolis Center
Wed 09:49:42 AM 37.0392 -81.2550 North 511 588 33,000  Level Indianapolis Center
Wed 09:50:44 AM 37.1797 -81.2131 13° North 514 592 33,000  Level Indianapolis Center
Wed 09:51:46 AM 37.3369 -81.1764 11° North 514 592 33,000  Level Indianapolis Center
Wed 09:52:48 AM 37.4756 -81.1336 14° North 519 597 33,000  Level Indianapolis Center
Wed 09:53:50 AM 37.6178 -81.1050 North 523 602 33,000 435 Level Indianapolis Center
Wed 09:54:52 AM 37.7525 -81.0625 14° North 516 594 33,900 629 Climbing Indianapolis Center
Wed 09:55:54 AM 37.8986 -81.0303 10° North 510 587 34,300 532 Climbing Indianapolis Center
Wed 09:56:56 AM 38.0336 -80.9894 13° North 505 581 35,000 339 Climbing Indianapolis Center
Wed 09:57:58 AM 38.1936 -80.9511 11° North 494 568 35,000  Level Indianapolis Center
Wed 09:59:00 AM 38.3244 -80.9106 14° North 490 564 35,000  Level Indianapolis Center
Wed 10:00:02 AM 38.4567 -80.8783 11° North 490 564 35,000  Level Indianapolis Center
Wed 10:01:04 AM 38.5883 -80.8378 14° North 490 564 35,000  Level Indianapolis Center
Wed 10:02:06 AM 38.7194 -80.8053 11° North 487 560 35,000  Level Indianapolis Center
Wed 10:03:08 AM 38.8781 -80.7594 13° North 486 559 35,000  Level Indianapolis Center
Wed 10:04:10 AM 39.0078 -80.7264 11° North 483 556 35,000  Level Indianapolis Center
Wed 10:05:12 AM 39.1383 -80.6833 14° North 484 557 35,000  Level Indianapolis Center
Wed 10:06:14 AM 39.2653 -80.6297 18° North 484 557 35,000  Level Indianapolis Center
Wed 10:07:16 AM 39.3933 -80.5828 16° North 481 554 35,000  Level Indianapolis Center
Wed 10:08:18 AM 39.5231 -80.5297 18° North 487 560 35,000  Level Indianapolis Center
Wed 10:09:20 AM 39.6742 -80.4681 17° North 476 548 35,000  Level Indianapolis Center
Wed 10:09:56 AM 39.7247 -80.4431 21° North 479 551 35,000 -1,224 Level Cleveland Center
Wed 10:10:58 AM 39.8764 -80.3889 15° North 476 548 33,000 -1,452 Descending Cleveland Center
Wed 10:12:00 AM 40.0014 -80.3281 20° North 477 549 32,000 -829 Descending Cleveland Center
Wed 10:13:01 AM 40.1244 -80.2803 17° North 466 536 31,300 -488 Descending Cleveland Center
Wed 10:14:03 AM 40.2411 -80.2256 20° North 450 518 31,000 -146 Descending Cleveland Center
Wed 10:15:04 AM 40.3647 -80.1756 17° North 446 513 31,000  Level Cleveland Center
Wed 10:16:06 AM 40.4883 -80.1206 19° North 444 511 31,000  Level Cleveland Center
Wed 10:17:08 AM 40.6006 -80.0750 17° North 437 503 31,000  Level Cleveland Center
Wed 10:18:09 AM 40.7164 -80.0233 19° North 434 499 31,000 -390 Level Cleveland Center
Wed 10:19:11 AM 40.8342 -79.9711 19° North 433 498 30,200 -878 Descending Cleveland Center
Wed 10:20:12 AM 40.9508 -79.9250 17° North 435 501 29,200 -1,415 Descending Cleveland Center
Wed 10:21:14 AM 41.0678 -79.8692 20° North 444 511 27,300 -2,032 Descending Cleveland Center
Wed 10:22:16 AM 41.2122 -79.8058 18° North 454 522 25,000 -1,610 Descending Cleveland Center
Wed 10:23:17 AM 41.3361 -79.7556 17° North 463 533 24,000 -488 Descending Cleveland Center
Wed 10:24:19 AM 41.4606 -79.6975 19° North 476 548 24,000  Level Cleveland Center
Wed 10:25:21 AM 41.5853 -79.6428 18° North 474 545 24,000 -341 Level Cleveland Center
Wed 10:26:22 AM 41.7086 -79.5903 18° North 468 539 23,300 -829 Descending Cleveland Center
Wed 10:27:24 AM 41.8275 -79.5319 20° North 457 526 22,300 -1,548 Descending Cleveland Center
Wed 10:28:26 AM 41.9617 -79.4736 18° North 433 498 20,100 -2,032 Descending Cleveland Center
Wed 10:29:28 AM 42.0758 -79.4219 19° North 414 476 18,100 -1,463 Descending Cleveland Center
Wed 10:30:29 AM 42.1789 -79.3744 19° North 410 472 17,100 -1,268 Descending Cleveland Center
Wed 10:31:31 AM 42.2878 -79.3258 18° North 395 455 15,500 -1,548 Descending Cleveland Center
Wed 10:32:33 AM 42.3925 -79.2778 19° North 382 440 13,900 -1,403 Descending Cleveland Center
Wed 10:33:35 AM 42.4794 -79.2292 22° Northeast 385 443 12,600 -1,258 Descending Cleveland Center
Wed 10:34:37 AM 42.5858 -79.1781 19° North 342 394 11,300 -1,171 Descending Cleveland Center
Wed 10:35:38 AM 42.6628 -79.1378 21° North 304 350 10,200 -1,220 Descending Cleveland Center
Wed 10:36:40 AM 42.7356 -79.1031 19° North 278 320 8,800 -1,355 Descending Cleveland Center
Wed 10:37:42 AM 42.8086 -79.0683 19° North 271 312 7,400 -871 Descending Cleveland Center
Wed 10:38:44 AM 42.8731 -79.0164 31° Northeast 267 307 7,000 -629 Descending Cleveland Center
Wed 10:39:46 AM 42.9297 -78.9419 44° Northeast 268 308 6,100 -1,113 Descending Cleveland Center
Wed 10:40:48 AM 42.9847 -78.8736 42° Northeast 260 299 4,700 -1,210 Descending Cleveland Center
Wed 10:41:50 AM 43.0367 -78.8067 43° Northeast 250 288 3,600 -1,161 Descending Cleveland Center
Wed 10:42:52 AM 43.0797 -78.7400 49° Northeast 249 287 2,300 -581 Descending Cleveland Center
Wed 10:43:54 AM 43.1083 -78.7833 312° West 170 196 2,400 -242 Climbing Cleveland Center
Wed 10:44:56 AM 43.1092 -78.8417 271° West 148 170 1,800 -390 Descending Cleveland Center
Wed 10:45:57 AM 43.1097 -78.8861 271° West 145 167 1,600 -197 Descending Cleveland Center

Login

Don't have an account? Register now (free) for customized features, flight alerts, and more!